Map

Track Data

SID SEASON NUMBER BASIN SUBBASIN NAME ISO_TIME NATURE LAT LON WMO_WIND WMO_PRES WMO_AGENCY TRACK_TYPE DIST2LAND LANDFALL IFLAG USA_AGENCY USA_ATCF_ID USA_LAT USA_LON USA_RECORD USA_STATUS USA_WIND USA_PRES USA_SSHS USA_R34_NE USA_R34_SE USA_R34_SW USA_R34_NW USA_R50_NE USA_R50_SE USA_R50_SW USA_R50_NW USA_R64_NE USA_R64_SE USA_R64_SW USA_R64_NW USA_POCI USA_ROCI USA_RMW USA_EYE TOKYO_LAT TOKYO_LON TOKYO_GRADE TOKYO_WIND TOKYO_PRES TOKYO_R50_DIR TOKYO_R50_LONG TOKYO_R50_SHORT TOKYO_R30_DIR TOKYO_R30_LONG TOKYO_R30_SHORT TOKYO_LAND CMA_LAT CMA_LON CMA_CAT CMA_WIND CMA_PRES HKO_LAT HKO_LON HKO_CAT HKO_WIND HKO_PRES NEWDELHI_LAT NEWDELHI_LON NEWDELHI_GRADE NEWDELHI_WIND NEWDELHI_PRES NEWDELHI_CI NEWDELHI_DP NEWDELHI_POCI REUNION_LAT REUNION_LON REUNION_TYPE REUNION_WIND REUNION_PRES REUNION_TNUM REUNION_CI REUNION_RMW REUNION_R34_NE REUNION_R34_SE REUNION_R34_SW REUNION_R34_NW REUNION_R50_NE REUNION_R50_SE REUNION_R50_SW REUNION_R50_NW REUNION_R64_NE REUNION_R64_SE REUNION_R64_SW REUNION_R64_NW BOM_LAT BOM_LON BOM_TYPE BOM_WIND BOM_PRES BOM_TNUM BOM_CI BOM_RMW BOM_R34_NE BOM_R34_SE BOM_R34_SW BOM_R34_NW BOM_R50_NE BOM_R50_SE BOM_R50_SW BOM_R50_NW BOM_R64_NE BOM_R64_SE BOM_R64_SW BOM_R64_NW BOM_ROCI BOM_POCI BOM_EYE BOM_POS_METHOD BOM_PRES_METHOD NADI_LAT NADI_LON NADI_CAT NADI_WIND NADI_PRES WELLINGTON_LAT WELLINGTON_LON WELLINGTON_WIND WELLINGTON_PRES DS824_LAT DS824_LON DS824_STAGE DS824_WIND DS824_PRES TD9636_LAT TD9636_LON TD9636_STAGE TD9636_WIND TD9636_PRES TD9635_LAT TD9635_LON TD9635_WIND TD9635_PRES TD9635_ROCI NEUMANN_LAT NEUMANN_LON NEUMANN_CLASS NEUMANN_WIND NEUMANN_PRES MLC_LAT MLC_LON MLC_CLASS MLC_WIND MLC_PRES USA_GUST BOM_GUST BOM_GUST_PER REUNION_GUST REUNION_GUST_PER USA_SEAHGT USA_SEARAD_NE USA_SEARAD_SE USA_SEARAD_SW USA_SEARAD_NW STORM_SPEED STORM_DIR
1921293N13280 1921 55 NA CS NOT_NAMED 1921-10-20 00:00:00 TS 12.7000 -80.1000 35 hurdat_atl main 361 347 O_____________ hurdat_atl AL061921 12.7000 -80.1000 TS 35 0 5 321
1921293N13280 1921 55 NA CS NOT_NAMED 1921-10-20 03:00:00 TS 12.8975 -80.2624 main 347 331 P_____________ AL061921 12.8975 -80.2624 TS 35 0 5 324
1921293N13280 1921 55 NA CS NOT_NAMED 1921-10-20 06:00:00 TS 13.1000 -80.4000 35 hurdat_atl main 331 312 O_____________ hurdat_atl AL061921 13.1000 -80.4000 TS 35 0 5 331
1921293N13280 1921 55 NA CS NOT_NAMED 1921-10-20 09:00:00 TS 13.3075 -80.5000 main 312 294 P_____________ AL061921 13.3075 -80.5000 TS 35 0 4 334
1921293N13280 1921 55 NA CS NOT_NAMED 1921-10-20 12:00:00 TS 13.5000 -80.6000 35 hurdat_atl main 294 281 O_____________ hurdat_atl AL061921 13.5000 -80.6000 TS 35 0 4 325
1921293N13280 1921 55 NA CS NOT_NAMED 1921-10-20 15:00:00 TS 13.6500 -80.7425 main 278 254 P_____________ AL061921 13.6500 -80.7425 TS 37 0 4 316
1921293N13280 1921 55 NA CS NOT_NAMED 1921-10-20 18:00:00 TS 13.8000 -80.9000 40 hurdat_atl main 254 239 O_____________ hurdat_atl AL061921 13.8000 -80.9000 TS 40 0 5 319
1921293N13280 1921 55 NA CS NOT_NAMED 1921-10-20 21:00:00 TS 13.9925 -81.0500 main 229 215 P_____________ AL061921 13.9925 -81.0500 TS 42 0 5 324
1921293N13280 1921 55 NA CS NOT_NAMED 1921-10-21 00:00:00 TS 14.2000 -81.2000 45 hurdat_atl main 215 204 O_____________ hurdat_atl AL061921 14.2000 -81.2000 TS 45 0 5 325
1921293N13280 1921 55 NA CS NOT_NAMED 1921-10-21 03:00:00 TS 14.4000 -81.3500 main 194 177 P_____________ AL061921 14.4000 -81.3500 TS 47 0 5 324
1921293N13280 1921 55 NA CS NOT_NAMED 1921-10-21 06:00:00 TS 14.6000 -81.5000 50 hurdat_atl main 177 162 O_____________ hurdat_atl AL061921 14.6000 -81.5000 TS 50 0 5 324
1921293N13280 1921 55 NA CS NOT_NAMED 1921-10-21 09:00:00 TS 14.7925 -81.6426 main 162 139 P_____________ AL061921 14.7925 -81.6426 TS 50 0 5 324
1921293N13280 1921 55 NA CS NOT_NAMED 1921-10-21 12:00:00 TS 15.0000 -81.8000 50 hurdat_atl main 139 120 O_____________ hurdat_atl AL061921 15.0000 -81.8000 TS 50 0 6 323
1921293N13280 1921 55 NA CS NOT_NAMED 1921-10-21 15:00:00 TS 15.2425 -81.9925 main 120 106 P_____________ AL061921 15.2425 -81.9925 TS 52 0 6 322
1921293N13280 1921 55 NA CS NOT_NAMED 1921-10-21 18:00:00 TS 15.5000 -82.2000 55 hurdat_atl main 111 108 O_____________ hurdat_atl AL061921 15.5000 -82.2000 TS 55 0 6 322
1921293N13280 1921 55 NA CS NOT_NAMED 1921-10-21 21:00:00 TS 15.7500 -82.4000 main 108 108 P_____________ AL061921 15.7500 -82.4000 TS 60 0 6 322
1921293N13280 1921 55 NA CS NOT_NAMED 1921-10-22 00:00:00 TS 16.0000 -82.6000 65 hurdat_atl main 116 116 O_____________ hurdat_atl AL061921 16.0000 -82.6000 HU 65 1 6 323
1921293N13280 1921 55 NA CS NOT_NAMED 1921-10-22 03:00:00 TS 16.2500 -82.7926 main 119 119 P_____________ AL061921 16.2500 -82.7926 HU 67 1 6 322
1921293N13280 1921 55 NA CS NOT_NAMED 1921-10-22 06:00:00 TS 16.5000 -83.0000 70 hurdat_atl main 140 140 O_____________ hurdat_atl AL061921 16.5000 -83.0000 HU 70 1 7 319
1921293N13280 1921 55 NA CS NOT_NAMED 1921-10-22 09:00:00 TS 16.7425 -83.2426 main 149 149 P_____________ AL061921 16.7425 -83.2426 HU 72 1 7 316
1921293N13280 1921 55 NA CS NOT_NAMED 1921-10-22 12:00:00 TS 17.0000 -83.5000 75 hurdat_atl main 159 159 O_____________ hurdat_atl AL061921 17.0000 -83.5000 HU 75 1 7 318
1921293N13280 1921 55 NA CS NOT_NAMED 1921-10-22 15:00:00 TS 17.2850 -83.7501 main 176 176 P_____________ AL061921 17.2850 -83.7501 HU 77 1 8 321
1921293N13280 1921 55 NA CS NOT_NAMED 1921-10-22 18:00:00 TS 17.6000 -84.0000 80 hurdat_atl main 203 203 O_____________ hurdat_atl AL061921 17.6000 -84.0000 HU 80 1 8 324
1921293N13280 1921 55 NA CS NOT_NAMED 1921-10-22 21:00:00 TS 17.9350 -84.2501 main 227 227 P_____________ AL061921 17.9350 -84.2501 HU 85 2 9 326
1921293N13280 1921 55 NA CS NOT_NAMED 1921-10-23 00:00:00 TS 18.3000 -84.5000 90 hurdat_atl main 269 269 O_____________ hurdat_atl AL061921 18.3000 -84.5000 HU 90 2 9 327
1921293N13280 1921 55 NA CS NOT_NAMED 1921-10-23 03:00:00 TS 18.6850 -84.7650 main 287 255 P_____________ AL061921 18.6850 -84.7650 HU 95 2 9 329
1921293N13280 1921 55 NA CS NOT_NAMED 1921-10-23 06:00:00 TS 19.1000 -85.0000 100 hurdat_atl main 255 229 O_____________ hurdat_atl AL061921 19.1000 -85.0000 HU 100 3 9 335
1921293N13280 1921 55 NA CS NOT_NAMED 1921-10-23 09:00:00 TS 19.5425 -85.1800 main 229 189 P_____________ AL061921 19.5425 -85.1800 HU 105 3 9 343
1921293N13280 1921 55 NA CS NOT_NAMED 1921-10-23 12:00:00 TS 20.0000 -85.3000 110 hurdat_atl main 189 156 O_____________ hurdat_atl AL061921 20.0000 -85.3000 HU 110 3 9 349
1921293N13280 1921 55 NA CS NOT_NAMED 1921-10-23 15:00:00 TS 20.4500 -85.3652 main 156 118 P_____________ AL061921 20.4500 -85.3652 HU 115 4 9 354
1921293N13280 1921 55 NA CS NOT_NAMED 1921-10-23 18:00:00 TS 20.9000 -85.4000 120 941 hurdat_atl main 118 78 O_____________ hurdat_atl AL061921 20.9000 -85.4000 HU 120 941 4 9 354
1921293N13280 1921 55 NA CS NOT_NAMED 1921-10-23 21:00:00 TS 21.3425 -85.4575 main 84 52 P_____________ AL061921 21.3425 -85.4575 HU 120 4 9 354
1921293N13280 1921 55 NA CS NOT_NAMED 1921-10-24 00:00:00 TS 21.8000 -85.5000 120 hurdat_atl main 52 51 O_____________ hurdat_atl AL061921 21.8000 -85.5000 HU 120 4 10 357
1921293N13280 1921 55 NA GM NOT_NAMED 1921-10-24 03:00:00 TS 22.2925 -85.5076 main 68 68 P_____________ AL061921 22.2925 -85.5076 HU 120 4 10 1
1921293N13280 1921 55 NA GM NOT_NAMED 1921-10-24 06:00:00 TS 22.8000 -85.5000 120 hurdat_atl main 112 112 O_____________ hurdat_atl AL061921 22.8000 -85.5000 HU 120 4 10 0
1921293N13280 1921 55 NA GM NOT_NAMED 1921-10-24 09:00:00 TS 23.3075 -85.5223 main 158 158 P_____________ AL061921 23.3075 -85.5223 HU 120 4 10 1
1921293N13280 1921 55 NA GM NOT_NAMED 1921-10-24 12:00:00 TS 23.8000 -85.5000 120 hurdat_atl main 196 196 O_____________ hurdat_atl AL061921 23.8000 -85.5000 HU 120 4 10 8
1921293N13280 1921 55 NA GM NOT_NAMED 1921-10-24 15:00:00 TS 24.2575 -85.3800 main 228 228 P_____________ AL061921 24.2575 -85.3800 HU 120 4 9 17
1921293N13280 1921 55 NA GM NOT_NAMED 1921-10-24 18:00:00 TS 24.7000 -85.2000 120 hurdat_atl main 254 254 O_____________ hurdat_atl AL061921 24.7000 -85.2000 HU 120 4 10 21
1921293N13280 1921 55 NA GM NOT_NAMED 1921-10-24 21:00:00 TS 25.1575 -85.0075 main 297 282 P_____________ AL061921 25.1575 -85.0075 HU 120 4 10 22
1921293N13280 1921 55 NA GM NOT_NAMED 1921-10-25 00:00:00 TS 25.6000 -84.8000 120 943 hurdat_atl main 282 245 O_____________ hurdat_atl AL061921 25.6000 -84.8000 HU 120 943 4 9 23
1921293N13280 1921 55 NA GM NOT_NAMED 1921-10-25 03:00:00 TS 26.0149 -84.6073 main 245 204 P_____________ AL061921 26.0149 -84.6073 HU 117 4 9 24
1921293N13280 1921 55 NA GM NOT_NAMED 1921-10-25 06:00:00 TS 26.4000 -84.4000 115 hurdat_atl main 204 171 O_____________ hurdat_atl AL061921 26.4000 -84.4000 HU 115 4 8 27
1921293N13280 1921 55 NA GM NOT_NAMED 1921-10-25 09:00:00 TS 26.7573 -84.1797 main 167 130 P_____________ AL061921 26.7573 -84.1797 HU 110 3 8 32
1921293N13280 1921 55 NA GM NOT_NAMED 1921-10-25 12:00:00 TS 27.1000 -83.9000 105 hurdat_atl main 130 88 O_____________ hurdat_atl AL061921 27.1000 -83.9000 HU 105 3 9 41
1921293N13280 1921 55 NA GM NOT_NAMED 1921-10-25 15:00:00 TS 27.4267 -83.5308 main 81 22 P_____________ AL061921 27.4267 -83.5308 HU 102 3 10 45
1921293N13280 1921 55 NA GM NOT_NAMED 1921-10-25 18:00:00 TS 27.8000 -83.1000 100 958 hurdat_atl main 22 0 O_____________ hurdat_atl AL061921 27.8000 -83.1000 HU 100 958 3 11 44
1921293N13280 1921 55 NA GM NOT_NAMED 1921-10-25 20:00:00 TS 28.1000 -82.8000 100 958 hurdat_atl main 0 0 O_____________ hurdat_atl AL061921 28.1000 -82.8000 L HU 100 958 3 12 43
1921293N13280 1921 55 NA NA NOT_NAMED 1921-10-25 21:00:00 TS 28.2218 -82.6552 main 0 0 P_____________ AL061921 28.2218 -82.6552 HU 95 2 10 53
1921293N13280 1921 55 NA NA NOT_NAMED 1921-10-26 00:00:00 TS 28.5000 -82.2000 80 hurdat_atl main 0 0 O_____________ hurdat_atl AL061921 28.5000 -82.2000 HU 80 1 10 59
1921293N13280 1921 55 NA NA NOT_NAMED 1921-10-26 03:00:00 TS 28.7589 -81.6412 main 0 0 P_____________ AL061921 28.7589 -81.6412 HU 75 1 12 65
1921293N13280 1921 55 NA NA NOT_NAMED 1921-10-26 06:00:00 TS 29.0000 -81.0000 70 hurdat_atl main 0 0 O_____________ hurdat_atl AL061921 29.0000 -81.0000 HU 70 1 13 65
1921293N13280 1921 55 NA NA NOT_NAMED 1921-10-26 09:00:00 TS 29.2871 -80.3305 main 62 62 P_____________ AL061921 29.2871 -80.3305 HU 72 1 13 68
1921293N13280 1921 55 NA NA NOT_NAMED 1921-10-26 12:00:00 TS 29.5000 -79.6000 75 hurdat_atl main 133 133 O_____________ hurdat_atl AL061921 29.5000 -79.6000 HU 75 1 13 79
1921293N13280 1921 55 NA NA NOT_NAMED 1921-10-26 15:00:00 TS 29.5446 -78.8219 main 199 199 P_____________ AL061921 29.5446 -78.8219 HU 75 1 14 90
1921293N13280 1921 55 NA NA NOT_NAMED 1921-10-26 18:00:00 TS 29.5000 -78.0000 75 hurdat_atl main 267 267 O_____________ hurdat_atl AL061921 29.5000 -78.0000 HU 75 1 14 93
1921293N13280 1921 55 NA NA NOT_NAMED 1921-10-26 21:00:00 TS 29.4646 -77.1576 main 339 339 P_____________ AL061921 29.4646 -77.1576 HU 77 1 15 94
1921293N13280 1921 55 NA NA NOT_NAMED 1921-10-27 00:00:00 TS 29.4000 -76.3000 80 hurdat_atl main 420 420 O_____________ hurdat_atl AL061921 29.4000 -76.3000 HU 80 1 15 96
1921293N13280 1921 55 NA NA NOT_NAMED 1921-10-27 03:00:00 TS 29.3072 -75.4349 main 503 503 P_____________ AL061921 29.3072 -75.4349 HU 80 1 15 98
1921293N13280 1921 55 NA NA NOT_NAMED 1921-10-27 06:00:00 TS 29.2000 -74.6000 80 hurdat_atl main 567 567 O_____________ hurdat_atl AL061921 29.2000 -74.6000 HU 80 1 14 98
1921293N13280 1921 55 NA NA NOT_NAMED 1921-10-27 09:00:00 TS 29.1071 -73.8203 main 609 609 P_____________ AL061921 29.1071 -73.8203 HU 77 1 13 99
1921293N13280 1921 55 NA NA NOT_NAMED 1921-10-27 12:00:00 TS 29.0000 -73.1000 75 hurdat_atl main 651 651 O_____________ hurdat_atl AL061921 29.0000 -73.1000 HU 75 1 12 102
1921293N13280 1921 55 NA NA NOT_NAMED 1921-10-27 15:00:00 TS 28.8572 -72.4201 main 697 691 P_____________ AL061921 28.8572 -72.4201 HU 75 1 12 105
1921293N13280 1921 55 NA NA NOT_NAMED 1921-10-27 18:00:00 TS 28.7000 -71.8000 75 hurdat_atl main 733 733 O_____________ hurdat_atl AL061921 28.7000 -71.8000 HU 75 1 11 106
1921293N13280 1921 55 NA NA NOT_NAMED 1921-10-27 21:00:00 TS 28.5497 -71.2277 main 773 773 P_____________ AL061921 28.5497 -71.2277 HU 75 1 10 107
1921293N13280 1921 55 NA NA NOT_NAMED 1921-10-28 00:00:00 TS 28.4000 -70.7000 75 hurdat_atl main 812 812 O_____________ hurdat_atl AL061921 28.4000 -70.7000 HU 75 1 10 108
1921293N13280 1921 55 NA NA NOT_NAMED 1921-10-28 03:00:00 TS 28.2498 -70.1851 main 831 831 P_____________ AL061921 28.2498 -70.1851 HU 75 1 9 109
1921293N13280 1921 55 NA NA NOT_NAMED 1921-10-28 06:00:00 TS 28.1000 -69.7000 75 hurdat_atl main 839 837 O_____________ hurdat_atl AL061921 28.1000 -69.7000 HU 75 1 9 109
1921293N13280 1921 55 NA NA NOT_NAMED 1921-10-28 09:00:00 TS 27.9647 -69.2504 main 846 841 P_____________ AL061921 27.9647 -69.2504 HU 75 1 8 111
1921293N13280 1921 55 NA NA NOT_NAMED 1921-10-28 12:00:00 TS 27.8000 -68.8000 75 hurdat_atl main 850 846 O_____________ hurdat_atl AL061921 27.8000 -68.8000 HU 75 1 9 116
1921293N13280 1921 55 NA NA NOT_NAMED 1921-10-28 15:00:00 TS 27.5648 -68.3150 main 858 849 P_____________ AL061921 27.5648 -68.3150 HU 72 1 10 119
1921293N13280 1921 55 NA NA NOT_NAMED 1921-10-28 18:00:00 TS 27.3000 -67.8000 70 hurdat_atl main 861 858 O_____________ hurdat_atl AL061921 27.3000 -67.8000 HU 70 1 11 120
1921293N13280 1921 55 NA NA NOT_NAMED 1921-10-28 21:00:00 TS 27.0273 -67.2649 main 868 867 P_____________ AL061921 27.0273 -67.2649 HU 70 1 11 117
1921293N13280 1921 55 NA NA NOT_NAMED 1921-10-29 00:00:00 TS 26.8000 -66.7000 70 hurdat_atl main 872 870 O_____________ hurdat_atl AL061921 26.8000 -66.7000 HU 70 1 11 109
1921293N13280 1921 55 NA NA NOT_NAMED 1921-10-29 03:00:00 TS 26.6695 -66.1303 main 887 882 P_____________ AL061921 26.6695 -66.1303 HU 70 1 11 101
1921293N13280 1921 55 NA NA NOT_NAMED 1921-10-29 06:00:00 TS 26.6000 -65.5000 70 hurdat_atl main 903 903 O_____________ hurdat_atl AL061921 26.6000 -65.5000 HU 70 1 12 98
1921293N13280 1921 55 NA NA NOT_NAMED 1921-10-29 09:00:00 TS 26.4968 -64.8091 main 909 909 P_____________ AL061921 26.4968 -64.8091 HU 70 1 13 94
1921293N13280 1921 55 NA NA NOT_NAMED 1921-10-29 12:00:00 TS 26.5000 -64.0000 70 hurdat_atl main 920 920 O_____________ hurdat_atl AL061921 26.5000 -64.0000 HU 70 1 15 85
1921293N13280 1921 55 NA NA NOT_NAMED 1921-10-29 15:00:00 TS 26.6282 -63.1097 main 951 951 P_____________ AL061921 26.6282 -63.1097 HU 65 1 19 74
1921293N13280 1921 55 NA NA NOT_NAMED 1921-10-29 18:00:00 TS 27.0000 -62.0000 60 hurdat_atl main 1029 1029 O_____________ hurdat_atl AL061921 27.0000 -62.0000 TS 60 0 24 65
1921293N13280 1921 55 NA NA NOT_NAMED 1921-10-29 21:00:00 TS 27.6355 -60.6474 main 1148 1148 P_____________ AL061921 27.6355 -60.6474 TS 55 0 31 61
1921293N13280 1921 55 NA NA NOT_NAMED 1921-10-30 00:00:00 ET 28.5000 -59.0000 50 hurdat_atl main 1313 1313 O_____________ hurdat_atl AL061921 28.5000 -59.0000 EX 50 -4 36 59
1921293N13280 1921 55 NA NA NOT_NAMED 1921-10-30 03:00:00 ET 29.4822 -57.0846 main 1509 1509 P_____________ AL061921 29.4822 -57.0846 EX 45 -4 40 60
1921293N13280 1921 55 NA NA NOT_NAMED 1921-10-30 06:00:00 ET 30.5000 -55.0000 40 hurdat_atl main 1708 O_____________ hurdat_atl AL061921 30.5000 -55.0000 EX 40 -4 41 60

About IBTrACS Database

This database is a web-friendly format of International Best Track Archive for Climate Stewardship (IBTrACS), a global best track data archive curated by NOAA dating back to 1842.

Updated: 2021-10-25